Time;durP1;ratioP1;P1;durP2;ratioP2;P2;SDS_P1;SDS_P2;PMS_P1;PMS_P2;Temp;Humidity;BMP_temperature;BMP_pressure;BME280_temperature;BME280_humidity;BME280_pressure;Samples;Min_cycle;Max_cycle;Signal;HPM_P1;HPM_P2
2022/09/30 00:00:55;;;;;;;12.40;8.93;;;8.00;99.90;;;;;;5043120;28;20152;-69
2022/09/30 00:03:22;;;;;;;11.15;9.35;;;8.10;99.90;;;;;;5046632;28;20488;-68
2022/09/30 00:06:01;;;;;;;13.82;8.30;;;8.10;99.90;;;;;;5050441;28;20056;-69
2022/09/30 00:08:35;;;;;;;13.35;9.20;;;8.10;99.90;;;;;;5045952;28;20466;-69
2022/09/30 00:11:15;;;;;;;12.60;9.70;;;8.10;99.90;;;;;;5052988;28;20048;-68
2022/09/30 00:13:43;;;;;;;15.35;10.25;;;8.10;99.90;;;;;;5040472;28;20041;-69
2022/09/30 00:16:11;;;;;;;13.25;9.55;;;8.10;99.90;;;;;;5043898;28;20048;-68
2022/09/30 00:18:39;;;;;;;14.38;8.95;;;8.10;99.90;;;;;;5041126;28;20073;-69
2022/09/30 00:21:07;;;;;;;11.68;9.43;;;8.10;99.90;;;;;;5049216;28;20118;-69
2022/09/30 00:23:36;;;;;;;14.00;10.07;;;8.10;99.90;;;;;;5036459;28;20142;-70
2022/09/30 00:26:06;;;;;;;17.27;12.48;;;8.10;99.90;;;;;;5038022;28;20045;-68
2022/09/30 00:28:34;;;;;;;12.98;10.13;;;8.10;99.90;;;;;;5044901;28;20451;-69
2022/09/30 00:31:06;;;;;;;12.70;9.77;;;8.10;99.90;;;;;;5041630;28;20037;-69
2022/09/30 00:33:34;;;;;;;15.65;10.20;;;8.10;99.90;;;;;;5048752;28;20148;-69
2022/09/30 00:36:02;;;;;;;14.40;11.05;;;8.10;99.90;;;;;;5044844;28;20045;-70
2022/09/30 00:38:29;;;;;;;12.30;9.50;;;8.10;99.90;;;;;;5051902;28;20436;-70
2022/09/30 00:40:58;;;;;;;11.50;9.32;;;8.10;99.90;;;;;;5053848;28;20231;-71
2022/09/30 00:43:57;;;;;;;11.77;9.45;;;8.20;99.90;;;;;;5070292;28;20839;-68
2022/09/30 00:46:30;;;;;;;10.43;8.48;;;8.20;99.90;;;;;;5051749;28;20049;-70
2022/09/30 00:49:02;;;;;;;11.43;8.48;;;8.10;99.90;;;;;;5044316;28;20544;-68
2022/09/30 00:51:36;;;;;;;12.50;9.23;;;8.20;99.90;;;;;;5034781;28;20069;-69
2022/09/30 00:54:08;;;;;;;15.32;11.18;;;8.20;99.90;;;;;;5041276;28;20995;-68
2022/09/30 00:56:41;;;;;;;15.77;11.98;;;8.20;99.90;;;;;;5041611;28;20049;-69
2022/09/30 00:59:16;;;;;;;17.13;11.98;;;8.20;99.90;;;;;;5043289;28;20044;-70
2022/09/30 01:01:43;;;;;;;14.23;10.10;;;8.10;99.90;;;;;;5046713;28;20049;-69
2022/09/30 01:04:37;;;;;;;14.82;10.85;;;8.10;99.90;;;;;;5051398;28;20738;-69
2022/09/30 01:07:07;;;;;;;12.35;10.07;;;8.10;99.90;;;;;;5050399;28;20506;-70
2022/09/30 01:09:39;;;;;;;14.48;11.40;;;8.10;99.90;;;;;;5037487;28;20643;-69
2022/09/30 01:12:10;;;;;;;16.05;11.73;;;8.10;99.90;;;;;;5042533;28;20045;-69
2022/09/30 01:14:39;;;;;;;17.17;11.52;;;8.10;99.90;;;;;;5055631;28;20546;-69
2022/09/30 01:17:35;;;;;;;18.60;13.65;;;8.10;99.90;;;;;;5043509;28;20040;-68
2022/09/30 01:20:29;;;;;;;14.18;10.80;;;8.10;99.90;;;;;;5043153;28;20046;-68
2022/09/30 01:23:15;;;;;;;15.40;11.48;;;8.10;99.90;;;;;;5048090;28;20052;-68
2022/09/30 01:26:00;;;;;;;15.98;12.60;;;8.10;99.90;;;;;;5045989;28;20127;-69
2022/09/30 01:29:08;;;;;;;14.00;10.55;;;8.10;99.90;;;;;;5049834;28;20694;-68
2022/09/30 01:31:41;;;;;;;19.25;11.13;;;8.10;99.90;;;;;;5040407;28;20061;-69
2022/09/30 01:35:03;;;;;;;17.75;11.20;;;8.00;99.90;;;;;;5042055;28;20450;-68
2022/09/30 01:38:00;;;;;;;14.55;10.35;;;8.10;99.90;;;;;;5037283;28;20049;-69
2022/09/30 01:40:49;;;;;;;12.07;8.60;;;8.10;99.90;;;;;;5048645;28;20124;-69
2022/09/30 01:43:36;;;;;;;10.90;8.32;;;8.10;99.90;;;;;;5048544;28;20042;-69
2022/09/30 01:46:16;;;;;;;10.25;8.07;;;8.10;99.90;;;;;;5042490;28;20068;-70
2022/09/30 01:48:59;;;;;;;10.88;8.35;;;8.10;99.90;;;;;;5035871;28;20045;-69
2022/09/30 01:51:40;;;;;;;12.23;9.52;;;8.10;99.90;;;;;;5040866;28;20045;-69
2022/09/30 01:54:17;;;;;;;11.95;8.55;;;8.10;99.90;;;;;;5043289;28;20354;-69
2022/09/30 01:56:49;;;;;;;12.65;9.20;;;8.10;99.90;;;;;;5049183;28;20047;-69
2022/09/30 02:00:04;;;;;;;13.02;8.75;;;8.10;99.90;;;;;;5035648;28;20068;-69
2022/09/30 02:03:03;;;;;;;13.73;11.07;;;8.10;99.90;;;;;;5041681;28;20085;-68
2022/09/30 02:05:44;;;;;;;10.73;8.88;;;8.10;99.90;;;;;;5037429;28;20103;-69
2022/09/30 02:08:27;;;;;;;10.90;9.38;;;8.10;99.90;;;;;;5040232;28;20052;-69
2022/09/30 02:11:12;;;;;;;11.18;8.88;;;8.10;99.90;;;;;;5030668;28;20519;-69
2022/09/30 02:13:51;;;;;;;12.30;9.55;;;8.00;99.90;;;;;;5040071;28;20044;-68
2022/09/30 02:16:31;;;;;;;11.88;9.65;;;8.10;99.90;;;;;;5047125;28;20802;-68
2022/09/30 02:19:08;;;;;;;13.80;10.43;;;8.00;99.90;;;;;;5042866;28;20116;-67
2022/09/30 02:21:39;;;;;;;12.13;9.17;;;8.00;99.90;;;;;;5045856;28;20047;-68
2022/09/30 02:24:10;;;;;;;15.13;9.88;;;8.00;99.90;;;;;;5042323;28;20044;-68
2022/09/30 02:26:41;;;;;;;10.60;8.75;;;8.10;99.90;;;;;;5034938;28;20600;-69
2022/09/30 02:29:15;;;;;;;13.60;8.52;;;8.00;99.90;;;;;;5039468;28;20125;-69
2022/09/30 02:31:45;;;;;;;12.68;9.60;;;8.00;99.90;;;;;;5038495;28;20112;-69
2022/09/30 02:34:15;;;;;;;14.65;11.02;;;8.10;99.90;;;;;;5047643;28;20064;-69
2022/09/30 02:36:53;;;;;;;17.80;12.88;;;8.10;99.90;;;;;;5043536;28;20049;-69
2022/09/30 02:39:27;;;;;;;17.70;12.07;;;8.10;99.90;;;;;;5043843;28;20045;-69
2022/09/30 02:42:01;;;;;;;16.58;12.27;;;8.00;99.90;;;;;;5044855;28;20053;-69
2022/09/30 02:44:28;;;;;;;11.70;9.40;;;8.00;99.90;;;;;;5047550;28;20777;-69
2022/09/30 02:47:10;;;;;;;14.38;11.45;;;8.10;99.90;;;;;;5048783;28;20049;-69
2022/09/30 02:49:55;;;;;;;11.70;9.32;;;8.10;99.90;;;;;;5050188;28;20113;-68
2022/09/30 02:52:42;;;;;;;13.35;10.20;;;8.00;99.90;;;;;;5041538;28;20130;-69
2022/09/30 02:55:44;;;;;;;13.85;10.63;;;8.10;99.90;;;;;;5045069;28;20037;-69
2022/09/30 02:58:14;;;;;;;15.73;10.88;;;8.10;99.90;;;;;;5038277;28;20443;-69
2022/09/30 03:00:41;;;;;;;12.88;9.85;;;8.10;99.90;;;;;;5047985;28;20674;-69
2022/09/30 03:03:17;;;;;;;13.23;10.52;;;8.10;99.90;;;;;;5040678;28;20040;-69
2022/09/30 03:05:44;;;;;;;12.73;10.07;;;8.10;99.90;;;;;;5045755;28;20084;-70
2022/09/30 03:08:11;;;;;;;13.07;10.63;;;8.10;99.90;;;;;;5044484;28;20044;-69
2022/09/30 03:10:38;;;;;;;;;;;8.10;99.90;;;;;;5048223;28;20045;-69
2022/09/30 03:13:28;;;;;;;17.05;11.02;;;8.10;99.90;;;;;;5044669;28;19924;-69
2022/09/30 03:16:12;;;;;;;10.77;9.10;;;8.10;99.90;;;;;;5051709;28;20037;-69
2022/09/30 03:19:04;;;;;;;11.93;9.13;;;8.10;99.90;;;;;;5043073;28;20120;-69
2022/09/30 03:22:18;;;;;;;15.18;11.40;;;8.10;99.90;;;;;;5047910;28;20052;-70
2022/09/30 03:24:48;;;;;;;13.93;9.73;;;8.10;99.90;;;;;;5036693;28;20048;-69
2022/09/30 03:27:41;;;;;;;12.45;10.43;;;8.10;99.90;;;;;;5049534;28;20053;-68
2022/09/30 03:30:19;;;;;;;13.27;9.80;;;8.10;99.90;;;;;;5046210;28;20068;-68
2022/09/30 03:33:11;;;;;;;18.30;12.68;;;8.20;99.90;;;;;;5038417;28;20518;-67
2022/09/30 03:35:57;;;;;;;;;;;8.20;99.90;;;;;;5039929;28;20037;-68
2022/09/30 03:38:41;;;;;;;14.70;10.82;;;8.20;99.90;;;;;;5046678;28;19921;-68
2022/09/30 03:41:35;;;;;;;15.93;12.27;;;8.20;99.90;;;;;;5049511;28;20071;-69
2022/09/30 03:44:22;;;;;;;19.25;13.25;;;8.20;99.90;;;;;;5052141;28;20059;-70
2022/09/30 03:46:53;;;;;;;18.98;13.20;;;8.20;99.90;;;;;;5040928;28;20191;-69
2022/09/30 03:49:28;;;;;;;17.02;12.18;;;8.20;99.90;;;;;;5037143;28;20049;-69
2022/09/30 03:51:56;;;;;;;17.85;13.23;;;8.20;99.90;;;;;;5038918;28;20053;-69
2022/09/30 03:54:24;;;;;;;15.05;11.73;;;8.20;99.90;;;;;;5049046;28;20118;-70
2022/09/30 03:56:51;;;;;;;21.80;14.98;;;8.20;99.90;;;;;;5050082;28;20060;-70
2022/09/30 03:59:27;;;;;;;18.90;12.90;;;8.20;99.90;;;;;;5045386;28;20502;-70
2022/09/30 04:01:55;;;;;;;18.63;13.85;;;8.20;99.90;;;;;;5035379;28;20045;-68
2022/09/30 04:04:22;;;;;;;15.23;11.93;;;8.20;99.90;;;;;;5039652;28;20036;-69
2022/09/30 04:06:49;;;;;;;15.23;11.40;;;8.20;99.90;;;;;;5041801;28;20076;-69
2022/09/30 04:09:16;;;;;;;13.05;10.00;;;8.10;99.90;;;;;;5040253;28;20045;-69
2022/09/30 04:11:42;;;;;;;;;;;8.10;99.90;;;;;;5044550;28;20545;-69
2022/09/30 04:14:09;;;;;;;12.80;9.75;;;8.10;99.90;;;;;;5046159;28;19921;-68
2022/09/30 04:16:36;;;;;;;9.80;8.23;;;8.10;99.90;;;;;;5050854;28;20043;-69
2022/09/30 04:19:02;;;;;;;;;;;8.10;99.90;;;;;;5041935;28;20057;-69
2022/09/30 04:21:29;;;;;;;10.75;8.60;;;8.10;99.90;;;;;;5035969;28;19925;-69
2022/09/30 04:23:56;;;;;;;10.80;8.93;;;8.10;99.90;;;;;;5044829;28;20044;-68
2022/09/30 04:26:23;;;;;;;12.43;10.20;;;8.10;99.90;;;;;;5042881;28;20045;-68
2022/09/30 04:28:51;;;;;;;;;;;8.20;99.90;;;;;;5042583;28;20098;-69
2022/09/30 04:31:19;;;;;;;;;;;8.10;99.90;;;;;;5039176;28;19932;-69
2022/09/30 04:33:46;;;;;;;10.80;8.55;;;8.10;99.90;;;;;;5046830;28;20024;-68
2022/09/30 04:36:13;;;;;;;8.40;7.50;;;8.10;99.90;;;;;;5045620;28;20048;-69
2022/09/30 04:38:40;;;;;;;;;;;8.10;99.90;;;;;;5049513;28;20116;-68
2022/09/30 04:41:08;;;;;;;11.70;8.93;;;8.10;99.90;;;;;;5044765;28;19925;-69
2022/09/30 04:43:35;;;;;;;11.13;8.20;;;8.10;99.90;;;;;;5033018;28;20048;-69
2022/09/30 04:46:02;;;;;;;10.88;8.65;;;8.10;99.90;;;;;;5043293;28;20057;-68
2022/09/30 04:48:30;;;;;;;;;;;8.10;99.90;;;;;;5048832;28;20121;-68
2022/09/30 04:50:58;;;;;;;14.73;11.30;;;8.10;99.90;;;;;;5050311;28;19931;-69
2022/09/30 04:53:25;;;;;;;14.65;10.60;;;8.10;99.90;;;;;;5033201;28;20045;-69
2022/09/30 04:55:58;;;;;;;13.35;10.55;;;8.00;99.90;;;;;;5042935;28;20052;-69
2022/09/30 04:58:26;;;;;;;14.55;8.20;;;8.00;99.90;;;;;;5040877;28;20095;-69
2022/09/30 05:01:04;;;;;;;9.90;7.90;;;8.10;99.90;;;;;;5037968;28;20040;-68
2022/09/30 05:03:31;;;;;;;10.65;7.80;;;8.00;99.90;;;;;;5048121;28;20063;-68
2022/09/30 05:05:58;;;;;;;10.73;8.50;;;8.00;99.90;;;;;;5044302;28;20682;-69
2022/09/30 05:08:25;;;;;;;8.52;7.55;;;8.00;99.90;;;;;;5048216;28;20530;-68
2022/09/30 05:11:00;;;;;;;8.50;6.85;;;8.00;99.90;;;;;;5047265;28;20597;-68
2022/09/30 05:13:32;;;;;;;10.15;7.85;;;8.00;99.90;;;;;;5043922;28;20049;-68
2022/09/30 05:15:59;;;;;;;13.10;9.35;;;8.00;99.90;;;;;;5049310;28;20051;-49
2022/09/30 05:18:27;;;;;;;14.02;11.00;;;8.00;99.90;;;;;;5047881;28;20052;-51
2022/09/30 05:20:56;;;;;;;11.50;8.75;;;8.00;99.90;;;;;;5041980;28;20044;-51
2022/09/30 05:23:25;;;;;;;10.23;8.25;;;8.00;99.90;;;;;;5040450;28;20048;-53
2022/09/30 05:25:52;;;;;;;8.55;6.93;;;8.00;99.90;;;;;;5043425;28;20075;-49
2022/09/30 05:28:19;;;;;;;11.40;7.82;;;8.00;99.90;;;;;;5046011;28;20043;-52
2022/09/30 05:30:48;;;;;;;38.63;6.63;;;8.00;99.90;;;;;;5046162;28;20049;-51
2022/09/30 05:33:15;;;;;;;9.90;7.15;;;8.00;99.90;;;;;;5042527;28;20148;-52
2022/09/30 05:35:42;;;;;;;6.10;5.15;;;7.90;99.90;;;;;;5033383;28;20033;-52
2022/09/30 05:38:10;;;;;;;5.57;4.95;;;7.90;99.90;;;;;;5038106;28;20128;-52
2022/09/30 05:40:40;;;;;;;7.38;6.50;;;7.90;99.90;;;;;;5034368;28;20063;-52
2022/09/30 05:43:08;;;;;;;7.40;6.03;;;7.90;99.90;;;;;;5038151;28;20055;-54
2022/09/30 05:45:37;;;;;;;6.72;5.30;;;7.90;99.90;;;;;;5038641;28;20052;-52
2022/09/30 05:48:04;;;;;;;13.50;8.25;;;8.00;99.90;;;;;;5042969;28;20667;-53
2022/09/30 05:50:30;;;;;;;9.18;7.47;;;8.00;99.90;;;;;;5039963;28;20045;-51
2022/09/30 05:52:57;;;;;;;10.13;7.68;;;8.00;99.90;;;;;;5041371;28;20079;-54
2022/09/30 05:55:24;;;;;;;9.50;7.60;;;7.90;99.90;;;;;;5044997;28;20049;-54
2022/09/30 05:57:51;;;;;;;;;;;8.00;99.90;;;;;;5042151;28;20043;-53
2022/09/30 06:00:19;;;;;;;12.27;8.77;;;8.00;99.90;;;;;;5045886;28;19920;-51
2022/09/30 06:02:50;;;;;;;12.52;9.82;;;8.00;99.90;;;;;;5028477;28;20602;-54
2022/09/30 06:05:17;;;;;;;14.20;10.55;;;8.00;99.90;;;;;;5041316;28;20493;-53
2022/09/30 06:07:44;;;;;;;18.05;11.52;;;7.90;99.90;;;;;;5034504;28;20139;-51
2022/09/30 06:10:11;;;;;;;10.98;9.30;;;7.90;99.90;;;;;;5045336;28;20044;-53
2022/09/30 06:12:38;;;;;;;10.52;8.73;;;8.00;99.90;;;;;;5043227;28;20047;-52
2022/09/30 06:15:06;;;;;;;15.13;11.60;;;8.00;99.90;;;;;;5039055;28;20055;-53
2022/09/30 06:17:33;;;;;;;13.93;9.80;;;8.00;99.90;;;;;;5043468;28;20065;-51
2022/09/30 06:20:03;;;;;;;17.52;13.70;;;8.00;99.90;;;;;;5043238;28;20076;-54
2022/09/30 06:22:34;;;;;;;13.32;10.90;;;8.00;99.90;;;;;;5041730;28;20148;-52
2022/09/30 06:25:05;;;;;;;14.52;10.60;;;8.00;99.90;;;;;;5039428;28;20133;-50
2022/09/30 06:27:33;;;;;;;13.13;10.65;;;8.00;99.90;;;;;;5045196;28;20079;-59
2022/09/30 06:30:00;;;;;;;16.85;13.00;;;8.00;99.90;;;;;;5025819;28;20037;-54
2022/09/30 06:32:26;;;;;;;17.73;13.32;;;8.10;99.90;;;;;;5041865;28;20062;-51
2022/09/30 06:34:54;;;;;;;19.83;12.85;;;8.10;99.90;;;;;;5042355;28;20663;-50
2022/09/30 06:37:22;;;;;;;15.73;12.18;;;8.10;99.90;;;;;;5005051;28;20830;-52
2022/09/30 06:39:49;;;;;;;15.80;11.93;;;8.10;99.90;;;;;;4998650;28;20110;-54
2022/09/30 06:42:17;;;;;;;20.73;13.38;;;8.10;99.90;;;;;;4979574;28;20108;-54
2022/09/30 06:44:45;;;;;;;20.85;13.95;;;8.20;99.90;;;;;;4970692;28;20646;-54
2022/09/30 06:47:20;;;;;;;15.57;12.05;;;8.20;99.90;;;;;;4984545;28;20441;-54
2022/09/30 06:49:57;;;;;;;14.35;11.10;;;8.20;99.90;;;;;;4987980;28;20152;-52
2022/09/30 06:52:25;;;;;;;17.25;12.35;;;8.30;99.90;;;;;;4988599;28;20438;-54
2022/09/30 06:54:55;;;;;;;17.83;12.80;;;8.30;99.90;;;;;;4989685;28;20433;-54
2022/09/30 06:57:26;;;;;;;18.00;12.48;;;8.30;99.90;;;;;;4977823;28;20044;-55
2022/09/30 06:59:53;;;;;;;20.08;13.07;;;8.40;99.90;;;;;;4983081;28;20029;-54
2022/09/30 07:02:20;;;;;;;16.67;11.85;;;8.50;99.90;;;;;;4989370;28;20414;-55
2022/09/30 07:04:49;;;;;;;18.48;13.85;;;8.50;99.90;;;;;;4987680;28;20540;-53
2022/09/30 07:07:16;;;;;;;18.15;13.38;;;8.50;99.90;;;;;;4990675;28;20813;-54
2022/09/30 07:09:42;;;;;;;22.05;14.15;;;8.50;99.90;;;;;;4993918;28;20152;-54
2022/09/30 07:12:10;;;;;;;19.50;12.50;;;8.60;99.90;;;;;;4990523;28;20285;-55
2022/09/30 07:14:37;;;;;;;15.98;12.27;;;8.60;99.90;;;;;;4992090;28;20289;-55
2022/09/30 07:17:07;;;;;;;22.00;16.52;;;8.60;99.90;;;;;;4981486;28;20668;-54
2022/09/30 07:19:35;;;;;;;22.10;16.65;;;8.60;99.90;;;;;;4996237;28;20401;-56
2022/09/30 07:24:47;;;;;;;21.83;15.75;;;8.70;99.90;;;;;;4979976;28;20044;-54
2022/09/30 07:27:14;;;;;;;22.27;17.10;;;8.70;99.90;;;;;;4989118;28;20201;-52
2022/09/30 07:29:42;;;;;;;20.73;15.07;;;8.70;99.90;;;;;;4990326;28;20056;-54
2022/09/30 07:32:30;;;;;;;23.48;17.08;;;8.80;99.90;;;;;;4986660;28;20258;-54
2022/09/30 07:34:57;;;;;;;20.30;15.27;;;8.80;99.90;;;;;;4987324;28;20451;-54
2022/09/30 07:37:24;;;;;;;;;;;8.80;99.90;;;;;;4985136;28;20042;-53
2022/09/30 07:39:52;;;;;;;22.52;17.65;;;8.80;99.90;;;;;;4982369;28;19924;-54
2022/09/30 07:42:22;;;;;;;23.13;16.48;;;8.90;99.90;;;;;;4979540;28;20340;-54
2022/09/30 07:44:50;;;;;;;29.58;18.38;;;8.90;99.90;;;;;;4984619;28;20737;-56
2022/09/30 07:47:18;;;;;;;27.00;19.15;;;8.90;99.90;;;;;;4989497;28;20044;-51
2022/09/30 07:49:45;;;;;;;26.77;19.25;;;9.00;99.90;;;;;;4994516;28;20068;-60
2022/09/30 07:52:13;;;;;;;26.70;19.88;;;9.00;99.90;;;;;;4986228;28;20370;-54
2022/09/30 07:54:41;;;;;;;24.20;19.50;;;9.00;99.90;;;;;;4969799;28;20310;-57
2022/09/30 07:57:15;;;;;;;24.63;18.00;;;9.10;99.90;;;;;;4972769;28;20382;-54
2022/09/30 07:59:42;;;;;;;18.77;15.63;;;9.10;99.90;;;;;;4987558;28;20579;-53
2022/09/30 08:02:15;;;;;;;24.00;16.33;;;9.10;99.90;;;;;;4990564;28;20449;-55
2022/09/30 08:04:42;;;;;;;17.10;14.07;;;9.20;99.90;;;;;;4982105;28;20209;-54
2022/09/30 08:07:12;;;;;;;16.58;12.98;;;9.20;99.90;;;;;;4981042;28;20185;-54
2022/09/30 08:09:40;;;;;;;17.05;13.20;;;9.20;99.90;;;;;;4981424;28;20397;-55
2022/09/30 08:12:07;;;;;;;16.40;13.52;;;9.20;99.90;;;;;;4987636;28;20396;-58
2022/09/30 08:14:34;;;;;;;15.13;12.27;;;9.30;99.90;;;;;;4992208;28;20070;-54
2022/09/30 08:17:01;;;;;;;16.38;11.68;;;9.30;99.90;;;;;;4977465;28;20441;-54
2022/09/30 08:19:29;;;;;;;14.38;10.52;;;9.40;99.90;;;;;;4987837;28;20162;-56
2022/09/30 08:21:57;;;;;;;14.88;10.05;;;9.40;99.90;;;;;;4994382;28;20208;-57
2022/09/30 08:24:26;;;;;;;13.52;11.73;;;9.50;99.90;;;;;;4984629;28;20275;-56
2022/09/30 08:26:53;;;;;;;18.70;14.25;;;9.50;99.90;;;;;;4984991;28;20448;-55
2022/09/30 08:29:21;;;;;;;13.98;12.38;;;9.70;99.90;;;;;;4989142;28;20364;-54
2022/09/30 08:32:08;;;;;;;11.60;8.85;;;9.90;99.90;;;;;;4978177;28;20230;-53
2022/09/30 08:34:35;;;;;;;10.80;9.10;;;9.90;99.90;;;;;;4984156;28;20750;-63
2022/09/30 08:37:04;;;;;;;10.57;9.25;;;10.00;99.90;;;;;;4984026;28;20311;-58
2022/09/30 08:39:36;;;;;;;11.15;10.05;;;9.90;99.90;;;;;;4986910;28;20125;-55
2022/09/30 08:42:12;;;;;;;9.95;8.50;;;9.90;99.90;;;;;;4985068;28;20403;-57
2022/09/30 08:45:18;;;;;;;10.82;8.73;;;9.90;99.90;;;;;;4982511;28;20222;-58
2022/09/30 08:48:16;;;;;;;12.40;9.15;;;9.90;99.90;;;;;;4987853;28;20493;-54
2022/09/30 08:51:00;;;;;;;11.70;10.03;;;9.90;99.90;;;;;;4989692;28;20641;-54
2022/09/30 08:53:33;;;;;;;12.93;11.32;;;9.90;99.90;;;;;;4985146;28;20300;-54
2022/09/30 08:56:02;;;;;;;12.63;11.25;;;9.90;99.90;;;;;;4990911;28;20300;-55
2022/09/30 08:58:37;;;;;;;12.88;10.32;;;9.90;99.90;;;;;;4980954;28;20073;-56
2022/09/30 09:01:31;;;;;;;14.65;12.73;;;9.90;99.90;;;;;;4990000;28;20420;-54
2022/09/30 09:04:00;;;;;;;12.93;9.80;;;10.00;99.90;;;;;;4981104;28;20376;-54
2022/09/30 09:06:51;;;;;;;13.27;9.52;;;10.10;99.90;;;;;;4989432;28;20057;-56
2022/09/30 09:09:42;;;;;;;9.88;8.45;;;10.10;99.90;;;;;;4984228;28;20463;-56
2022/09/30 09:12:18;;;;;;;8.50;7.30;;;10.10;99.90;;;;;;4971648;28;20517;-57
2022/09/30 09:14:57;;;;;;;8.65;7.75;;;10.10;99.90;;;;;;4973341;28;20277;-56
2022/09/30 09:17:42;;;;;;;9.45;7.97;;;10.10;99.90;;;;;;4989020;28;20311;-55
2022/09/30 09:20:37;;;;;;;8.88;7.80;;;10.00;99.90;;;;;;4977535;28;20545;-56
2022/09/30 09:23:10;;;;;;;8.95;7.35;;;10.10;99.90;;;;;;4987716;28;20290;-56
2022/09/30 09:25:38;;;;;;;7.85;6.32;;;10.00;99.90;;;;;;4965571;28;20779;-54
2022/09/30 09:28:22;;;;;;;10.23;7.72;;;10.10;99.90;;;;;;4978738;28;20125;-57
2022/09/30 09:30:56;;;;;;;10.13;7.75;;;10.10;99.90;;;;;;4966581;28;20049;-55
2022/09/30 09:33:34;;;;;;;8.05;7.25;;;10.10;99.90;;;;;;4983251;28;20364;-55
2022/09/30 09:36:10;;;;;;;;;;;10.10;99.90;;;;;;4976189;28;20221;-56
2022/09/30 09:38:48;;;;;;;15.90;8.85;;;10.10;99.90;;;;;;4955099;28;20078;-55
2022/09/30 09:41:53;;;;;;;9.50;6.70;;;10.10;99.90;;;;;;4972241;28;20076;-54
2022/09/30 09:44:42;;;;;;;8.25;7.07;;;10.10;99.90;;;;;;4988095;28;20172;-55
2022/09/30 09:47:16;;;;;;;6.95;6.05;;;10.10;99.90;;;;;;4987267;28;20045;-56
2022/09/30 09:50:02;;;;;;;8.40;6.75;;;10.10;99.90;;;;;;4981259;28;20055;-54
2022/09/30 09:52:46;;;;;;;8.10;6.20;;;10.10;99.90;;;;;;4989237;28;20193;-55
2022/09/30 09:55:18;;;;;;;7.63;6.13;;;10.20;99.90;;;;;;4981659;28;20475;-55
2022/09/30 09:57:46;;;;;;;7.30;5.80;;;10.20;99.90;;;;;;4984325;28;20475;-56
2022/09/30 10:03:21;;;;;;;7.90;4.90;;;10.20;99.90;;;;;;4975602;28;20049;-56
2022/09/30 10:06:01;;;;;;;5.40;4.90;;;10.30;99.90;;;;;;4988356;28;20110;-56
2022/09/30 10:08:32;;;;;;;6.05;5.40;;;10.30;99.90;;;;;;4983423;28;20076;-56
2022/09/30 10:11:03;;;;;;;5.38;4.88;;;10.30;99.90;;;;;;4984652;28;20049;-54
2022/09/30 10:13:31;;;;;;;5.45;4.93;;;10.40;99.90;;;;;;4973016;27;20461;-56
2022/09/30 10:16:00;;;;;;;7.18;5.90;;;10.40;99.90;;;;;;5009352;28;20033;-54
2022/09/30 10:18:32;;;;;;;4.70;4.13;;;10.40;99.90;;;;;;4986853;28;20308;-56
2022/09/30 10:21:18;;;;;;;5.80;5.20;;;10.50;99.90;;;;;;4987332;28;20731;-54
2022/09/30 10:23:44;;;;;;;5.00;4.18;;;10.50;99.90;;;;;;4984990;28;20557;-55
2022/09/30 10:26:23;;;;;;;;;;;10.60;99.90;;;;;;5008080;28;20357;-56
2022/09/30 10:28:53;;;;;;;7.47;5.03;;;10.60;99.90;;;;;;4982259;28;20193;-55
2022/09/30 10:31:36;;;;;;;5.93;5.35;;;10.60;99.90;;;;;;4985623;28;20296;-54
2022/09/30 10:34:24;;;;;;;9.48;7.78;;;10.60;99.90;;;;;;4986808;28;20810;-54
2022/09/30 10:36:53;;;;;;;8.90;7.40;;;10.70;99.90;;;;;;4987755;28;20347;-55
2022/09/30 10:39:29;;;;;;;7.53;6.82;;;10.80;99.90;;;;;;4989754;28;20427;-55
2022/09/30 10:42:07;;;;;;;7.13;6.30;;;10.80;99.90;;;;;;4987100;28;20309;-56
2022/09/30 10:44:44;;;;;;;6.90;6.20;;;10.90;99.90;;;;;;4980113;28;20213;-55
2022/09/30 10:47:19;;;;;;;;;;;10.90;99.90;;;;;;4991904;28;20870;-55
2022/09/30 10:49:59;;;;;;;6.65;5.20;;;10.90;99.90;;;;;;4986646;28;20252;-55
2022/09/30 10:52:33;;;;;;;5.22;4.72;;;11.00;99.90;;;;;;4991289;28;20517;-56
2022/09/30 10:55:24;;;;;;;7.43;5.93;;;11.00;99.90;;;;;;4969603;28;20064;-56
2022/09/30 10:57:53;;;;;;;8.75;6.28;;;11.00;99.90;;;;;;4994226;28;20193;-56
2022/09/30 11:00:24;;;;;;;7.75;6.95;;;11.00;99.90;;;;;;4993401;28;20559;-57
2022/09/30 11:03:09;;;;;;;9.35;6.85;;;11.00;99.90;;;;;;4994951;28;20048;-56
2022/09/30 11:05:43;;;;;;;9.00;6.57;;;11.00;99.90;;;;;;4995191;28;20620;-53
2022/09/30 11:08:16;;;;;;;7.30;6.60;;;11.00;99.90;;;;;;4991853;28;20156;-64
2022/09/30 11:11:10;;;;;;;9.85;7.97;;;11.00;99.90;;;;;;4987912;28;20037;-55
2022/09/30 11:13:54;;;;;;;7.50;6.80;;;11.00;99.90;;;;;;4986804;28;20057;-56
2022/09/30 11:16:33;;;;;;;7.57;6.80;;;11.00;99.90;;;;;;4988190;28;20303;-55
2022/09/30 11:19:13;;;;;;;7.60;6.53;;;10.90;99.90;;;;;;4982294;28;20387;-55
2022/09/30 11:21:45;;;;;;;7.05;6.35;;;10.90;99.90;;;;;;4992324;28;20473;-56
2022/09/30 11:24:31;;;;;;;8.35;6.70;;;10.90;99.90;;;;;;4989779;28;20617;-54
2022/09/30 11:27:24;;;;;;;8.27;5.80;;;10.90;99.90;;;;;;4990066;28;20225;-55
2022/09/30 11:30:21;;;;;;;7.68;6.88;;;10.90;99.90;;;;;;4991865;28;20549;-54
2022/09/30 11:32:58;;;;;;;7.72;7.03;;;11.00;99.90;;;;;;4986094;28;21037;-56
2022/09/30 11:35:59;;;;;;;7.30;6.55;;;11.00;99.90;;;;;;4978613;28;20291;-56
2022/09/30 11:38:47;;;;;;;7.15;6.45;;;11.00;99.90;;;;;;5004459;28;20297;-54
2022/09/30 11:41:32;;;;;;;7.72;5.85;;;11.10;99.90;;;;;;4974262;28;20787;-55
2022/09/30 11:44:16;;;;;;;6.30;5.45;;;11.10;99.90;;;;;;4977997;28;20254;-54
2022/09/30 11:46:58;;;;;;;7.15;5.50;;;11.10;99.90;;;;;;4986386;28;20401;-55
2022/09/30 11:49:39;;;;;;;6.03;5.43;;;11.10;99.90;;;;;;5009156;28;20528;-56
2022/09/30 11:52:31;;;;;;;6.40;5.43;;;11.10;99.90;;;;;;4992169;28;20573;-59
2022/09/30 11:55:53;;;;;;;6.57;5.30;;;11.10;99.90;;;;;;4996190;28;20279;-54
2022/09/30 11:58:25;;;;;;;5.25;4.75;;;11.10;99.90;;;;;;4992714;28;20197;-53
2022/09/30 12:01:17;;;;;;;10.73;8.23;;;11.20;99.90;;;;;;4993989;28;20388;-56
2022/09/30 12:03:54;;;;;;;21.30;12.50;;;11.20;99.90;;;;;;5019036;28;20625;-57
2022/09/30 12:06:32;;;;;;;16.10;9.98;;;11.20;99.90;;;;;;4997163;28;20149;-56
2022/09/30 12:09:06;;;;;;;;;;;11.20;99.90;;;;;;5011870;28;20394;-56
2022/09/30 12:12:01;;;;;;;16.27;10.88;;;11.20;99.90;;;;;;4991482;28;19935;-57
2022/09/30 12:14:37;;;;;;;8.70;7.13;;;11.20;99.90;;;;;;4973626;28;20156;-59
2022/09/30 12:17:17;;;;;;;6.20;5.43;;;11.20;99.90;;;;;;4974785;28;20158;-57
2022/09/30 12:19:48;;;;;;;6.40;5.68;;;11.20;99.90;;;;;;4996716;28;20463;-57
2022/09/30 12:22:29;;;;;;;5.70;5.07;;;11.30;99.90;;;;;;4993592;28;20681;-57
2022/09/30 12:24:56;;;;;;;8.73;5.60;;;11.30;99.90;;;;;;4988274;28;20041;-56
2022/09/30 12:27:41;;;;;;;;;;;11.30;99.90;;;;;;4998720;28;20133;-57
2022/09/30 12:30:16;;;;;;;;;;;11.40;99.90;;;;;;4981092;28;20363;-55
2022/09/30 12:33:09;;;;;;;;;;;11.40;99.90;;;;;;4996569;28;20197;-57
2022/09/30 12:35:45;;;;;;;;;;;11.40;99.90;;;;;;4986450;28;19925;-57
2022/09/30 12:38:27;;;;;;;;;;;11.40;99.90;;;;;;4989735;28;20697;-56
2022/09/30 12:41:01;;;;;;;;;;;11.40;99.90;;;;;;4990635;28;19951;-57
2022/09/30 12:43:47;;;;;;;;;;;11.40;99.90;;;;;;4996740;28;20121;-57
2022/09/30 12:46:14;;;;;;;;;;;11.40;99.90;;;;;;4986094;28;20234;-58
2022/09/30 12:49:02;;;;;;;;;;;11.40;99.90;;;;;;4986847;28;20121;-57
2022/09/30 12:51:37;;;;;;;;;;;11.40;99.90;;;;;;5002096;28;19925;-56
2022/09/30 12:54:13;;;;;;;;;;;11.40;99.90;;;;;;4992640;28;20250;-56
2022/09/30 12:56:45;;;;;;;;;;;11.30;99.90;;;;;;4994352;28;20181;-56
2022/09/30 12:59:13;;;;;;;;;;;11.30;99.90;;;;;;4975777;28;20221;-57
2022/09/30 13:01:41;;;;;;;;;;;11.20;99.90;;;;;;4991403;28;20240;-57
2022/09/30 13:04:07;;;;;;;;;;;11.30;99.90;;;;;;4987423;28;20738;-56
2022/09/30 13:06:43;;;;;;;;;;;11.30;99.90;;;;;;4984092;28;20271;-56
2022/09/30 13:09:10;;;;;;;;;;;11.30;99.90;;;;;;4982969;28;19929;-57
2022/09/30 13:11:41;;;;;;;;;;;11.40;99.90;;;;;;4987705;28;20806;-57
2022/09/30 13:14:44;;;;;;;;;;;11.50;99.90;;;;;;4980648;28;20267;-57
2022/09/30 13:17:11;;;;;;;;;;;11.50;99.90;;;;;;4972333;28;20159;-56
2022/09/30 13:19:39;;;;;;;;;;;11.50;99.90;;;;;;4978083;28;20222;-57
2022/09/30 13:22:28;;;;;;;;;;;11.60;99.90;;;;;;4985096;28;19924;-57
2022/09/30 13:24:56;;;;;;;;;;;11.60;99.90;;;;;;4974292;28;20196;-57
2022/09/30 13:27:37;;;;;;;;;;;11.60;99.90;;;;;;4983396;28;20031;-56
2022/09/30 13:30:07;;;;;;;;;;;11.60;99.90;;;;;;4982657;28;19924;-56
2022/09/30 13:32:38;;;;;;;;;;;11.60;99.90;;;;;;5000230;28;20761;-57
2022/09/30 13:35:24;;;;;;;;;;;11.60;99.90;;;;;;4995180;28;20530;-55
2022/09/30 13:38:10;;;;;;;;;;;11.60;99.90;;;;;;4990153;28;20417;-57
2022/09/30 13:40:48;;;;;;;;;;;11.70;99.90;;;;;;4974845;28;19925;-56
2022/09/30 13:43:42;;;;;;;;;;;11.70;99.90;;;;;;4984987;28;20617;-56